createdAt,value
2022-09-05T00:01:50.969Z,14.82
2022-09-05T00:04:30.013Z,14.72
2022-09-05T00:07:06.633Z,14.67
2022-09-05T00:09:51.222Z,14.61
2022-09-05T00:12:25.195Z,14.56
2022-09-05T00:15:17.054Z,14.53
2022-09-05T00:22:07.106Z,14.51
2022-09-05T00:24:32.400Z,14.53
2022-09-05T00:24:50.110Z,14.49
2022-09-05T00:27:45.254Z,14.36
2022-09-05T00:31:52.046Z,14.29
2022-09-05T00:33:17.940Z,14.27
2022-09-05T00:36:13.254Z,14.26
2022-09-05T00:38:52.926Z,14.27
2022-09-05T00:41:26.933Z,14.23
2022-09-05T00:44:02.021Z,14.23
2022-09-05T00:46:37.028Z,14.29
2022-09-05T00:49:12.246Z,14.29
2022-09-05T00:51:44.620Z,14.26
2022-09-05T00:54:26.850Z,14.19
2022-09-05T00:57:19.147Z,14.15
2022-09-05T01:00:07.205Z,14.11
2022-09-05T01:02:51.796Z,14.01
2022-09-05T01:05:39.974Z,13.95
2022-09-05T01:08:15.313Z,13.89
2022-09-05T01:11:06.154Z,13.85
2022-09-05T01:13:53.962Z,13.77
2022-09-05T01:16:32.258Z,13.71
2022-09-05T01:19:15.967Z,13.71
2022-09-05T01:22:18.457Z,13.68
2022-09-05T01:25:06.030Z,13.63
2022-09-05T01:29:13.679Z,13.58
2022-09-05T01:30:53.016Z,13.55
2022-09-05T01:33:31.548Z,13.57
2022-09-05T01:36:14.222Z,13.57
2022-09-05T01:40:10.759Z,13.55
2022-09-05T01:42:14.700Z,13.49
2022-09-05T01:44:55.264Z,13.45
2022-09-05T01:47:46.100Z,13.46
2022-09-05T01:50:27.401Z,13.48
2022-09-05T01:53:25.845Z,13.41
2022-09-05T01:56:12.005Z,13.38
2022-09-05T01:59:02.959Z,13.36
2022-09-05T02:01:44.432Z,13.31
2022-09-05T02:04:16.803Z,13.28
2022-09-05T02:07:19.900Z,13.26
2022-09-05T02:10:11.861Z,13.24
2022-09-05T02:13:02.483Z,13.23
2022-09-05T02:15:41.921Z,13.22
2022-09-05T02:18:28.928Z,13.25
2022-09-05T02:21:02.358Z,13.31
2022-09-05T02:23:41.599Z,13.31
2022-09-05T02:26:17.642Z,13.28
2022-09-05T02:28:55.011Z,13.24
2022-09-05T02:31:33.138Z,13.26
2022-09-05T02:34:11.362Z,13.24
2022-09-05T02:36:45.944Z,13.22
2022-09-05T02:45:02.953Z,13.20
2022-09-05T02:45:11.899Z,13.18
2022-09-05T02:45:38.856Z,13.09
2022-09-05T02:48:15.320Z,13.04
2022-09-05T02:57:26.093Z,13.02
2022-09-05T02:57:26.610Z,13.02
2022-09-05T02:57:35.239Z,12.97
2022-09-05T03:00:08.467Z,12.94
2022-09-05T03:02:57.629Z,12.91
2022-09-05T03:05:33.704Z,12.91
2022-09-05T03:08:11.859Z,12.90
2022-09-05T03:10:54.311Z,12.89
2022-09-05T03:13:59.081Z,12.90
2022-09-05T03:16:47.577Z,12.88
2022-09-05T03:19:46.235Z,12.85
2022-09-05T03:22:36.754Z,12.84
2022-09-05T03:25:24.712Z,12.83
2022-09-05T03:28:15.966Z,12.81
2022-09-05T03:30:59.373Z,12.82
2022-09-05T03:33:50.975Z,12.81
2022-09-05T03:36:29.466Z,12.75
2022-09-05T03:39:27.973Z,12.70
2022-09-05T03:42:14.397Z,12.68
2022-09-05T03:45:00.444Z,12.72
2022-09-05T03:47:51.554Z,12.79
2022-09-05T03:57:05.075Z,12.83
2022-09-05T03:57:13.120Z,12.99
2022-09-05T03:57:19.058Z,12.92
2022-09-05T03:59:47.310Z,13.05
2022-09-05T04:08:05.895Z,13.05
2022-09-05T04:08:20.564Z,13.01
2022-09-05T04:08:41.308Z,13.02
2022-09-05T04:11:15.239Z,13.02
2022-09-05T04:13:47.610Z,12.98
2022-09-05T04:16:26.068Z,12.96
2022-09-05T04:19:14.818Z,12.97
2022-09-05T04:21:51.794Z,13.02
2022-09-05T04:24:29.434Z,13.10
2022-09-05T04:27:13.448Z,13.08
2022-09-05T04:30:37.864Z,13.01
2022-09-05T04:33:35.971Z,12.96
2022-09-05T04:36:29.910Z,12.92
2022-09-05T04:39:28.717Z,12.87
2022-09-05T04:42:39.486Z,12.77
2022-09-05T04:45:13.975Z,12.73
2022-09-05T04:47:58.262Z,12.69
2022-09-05T04:50:42.936Z,12.68
2022-09-05T04:53:36.976Z,12.68
2022-09-05T04:56:12.525Z,12.61
2022-09-05T05:01:22.721Z,12.57
2022-09-05T05:06:09.242Z,12.55
2022-09-05T05:06:14.486Z,12.54
2022-09-05T05:08:03.997Z,12.72
2022-09-05T05:15:41.950Z,12.72
2022-09-05T05:17:55.519Z,12.73
2022-09-05T05:18:03.359Z,12.77
2022-09-05T05:20:39.983Z,12.71
2022-09-05T05:22:59.061Z,12.70
2022-09-05T05:25:49.292Z,12.75
2022-09-05T05:28:28.079Z,12.82
2022-09-05T05:31:10.763Z,12.89
2022-09-05T05:33:46.638Z,12.99
2022-09-05T05:36:27.310Z,13.14
2022-09-05T05:39:04.514Z,13.32
2022-09-05T05:41:40.413Z,13.49
2022-09-05T05:44:22.360Z,13.66
2022-09-05T05:47:13.781Z,13.89
2022-09-05T05:49:46.252Z,14.18
2022-09-05T05:52:37.416Z,14.41
2022-09-05T05:55:52.423Z,14.64
2022-09-05T05:58:41.088Z,14.98
2022-09-05T06:01:38.586Z,15.32
2022-09-05T06:04:14.038Z,15.58
2022-09-05T06:07:01.738Z,15.80
2022-09-05T06:14:48.344Z,16.05
2022-09-05T06:15:06.631Z,16.34
2022-09-05T06:16:06.420Z,16.79
2022-09-05T06:18:53.526Z,17.16
2022-09-05T06:22:05.703Z,17.53
2022-09-05T06:24:40.413Z,17.96
2022-09-05T06:27:19.363Z,18.28
2022-09-05T06:29:55.652Z,18.62
2022-09-05T06:32:56.750Z,18.90
2022-09-05T06:35:50.733Z,19.23
2022-09-05T06:38:39.189Z,19.55
2022-09-05T06:41:13.382Z,19.85
2022-09-05T06:44:04.548Z,20.15
2022-09-05T06:46:55.030Z,20.53
2022-09-05T06:49:38.750Z,20.93
2022-09-05T06:52:31.293Z,21.25
2022-09-05T06:55:22.825Z,21.56
2022-09-05T06:58:14.043Z,21.92
2022-09-05T07:00:55.647Z,22.24
2022-09-05T07:03:41.996Z,22.58
2022-09-05T07:06:40.043Z,22.91
2022-09-05T07:09:28.452Z,23.16
2022-09-05T07:12:19.919Z,23.31
2022-09-05T07:15:08.491Z,23.59
2022-09-05T07:18:09.695Z,23.82
2022-09-05T07:21:16.790Z,23.84
2022-09-05T07:24:09.548Z,23.89
2022-09-05T07:26:53.644Z,24.00
2022-09-05T07:29:31.188Z,24.10
2022-09-05T07:32:06.372Z,24.36
2022-09-05T07:34:38.756Z,24.71
2022-09-05T07:37:16.266Z,24.97
2022-09-05T07:39:58.213Z,25.27
2022-09-05T07:42:46.183Z,25.40
2022-09-05T07:45:28.329Z,25.41
2022-09-05T07:48:06.475Z,25.45
2022-09-05T07:54:56.221Z,25.37
2022-09-05T07:56:51.516Z,25.92
2022-09-05T07:57:16.134Z,25.69
2022-09-05T07:59:37.661Z,25.94
2022-09-05T08:02:11.719Z,26.08
2022-09-05T08:04:44.927Z,26.51
2022-09-05T08:07:49.351Z,26.96
2022-09-05T08:10:18.374Z,27.40
2022-09-05T08:13:34.149Z,27.66
2022-09-05T08:16:13.744Z,28.15
2022-09-05T08:19:09.932Z,28.59
2022-09-05T08:21:49.927Z,29.01
2022-09-05T08:24:23.746Z,29.23
2022-09-05T08:26:56.122Z,29.41
2022-09-05T08:29:34.469Z,29.47
2022-09-05T08:32:09.502Z,29.65
2022-09-05T08:34:45.640Z,29.87
2022-09-05T08:37:22.385Z,30.24
2022-09-05T08:40:10.665Z,30.29
2022-09-05T08:46:35.563Z,30.55
2022-09-05T08:46:44.680Z,30.50
2022-09-05T08:49:38.598Z,30.53
2022-09-05T08:52:26.209Z,30.69
2022-09-05T08:55:07.662Z,31.02
2022-09-05T08:57:46.685Z,31.31
2022-09-05T09:00:24.186Z,31.85
2022-09-05T09:03:04.092Z,32.46
2022-09-05T09:06:13.415Z,32.59
2022-09-05T09:09:05.422Z,32.96
2022-09-05T09:11:56.357Z,33.47
2022-09-05T09:14:43.639Z,33.41
2022-09-05T09:17:24.016Z,33.55
2022-09-05T09:20:17.561Z,33.48
2022-09-05T09:23:05.107Z,33.19
2022-09-05T09:25:46.978Z,33.27
2022-09-05T09:28:50.651Z,33.51
2022-09-05T09:31:23.689Z,33.55
2022-09-05T09:33:56.108Z,33.69
2022-09-05T09:36:28.501Z,34.27
2022-09-05T09:39:37.296Z,33.99
2022-09-05T09:42:33.487Z,33.84
2022-09-05T09:45:28.327Z,34.36
2022-09-05T09:48:10.380Z,34.83
2022-09-05T09:51:01.778Z,35.20
2022-09-05T09:53:37.474Z,35.25
2022-09-05T09:56:15.992Z,35.17
2022-09-05T09:59:02.669Z,35.27
2022-09-05T10:02:07.331Z,35.59
2022-09-05T10:10:40.167Z,35.54
2022-09-05T10:11:00.721Z,35.24
2022-09-05T10:11:51.450Z,34.95
2022-09-05T10:14:33.840Z,35.63
2022-09-05T10:17:29.088Z,35.41
2022-09-05T10:20:17.126Z,35.65
2022-09-05T10:23:07.745Z,35.63
2022-09-05T10:26:01.603Z,36.10
2022-09-05T10:28:34.427Z,36.59
2022-09-05T10:32:10.385Z,37.29
2022-09-05T10:35:17.316Z,37.87
2022-09-05T10:37:04.807Z,37.87
2022-09-05T10:39:40.686Z,37.88
2022-09-05T10:42:35.056Z,37.67
2022-09-05T10:45:19.402Z,37.39
2022-09-05T10:48:21.049Z,36.74
2022-09-05T10:51:01.108Z,36.84
2022-09-05T10:53:42.884Z,36.62
2022-09-05T10:56:15.233Z,37.18
2022-09-05T11:00:58.039Z,37.37
2022-09-05T11:02:29.327Z,37.65
2022-09-05T11:04:55.135Z,37.81
2022-09-05T11:07:47.808Z,37.39
2022-09-05T11:10:24.627Z,37.01
2022-09-05T11:13:00.041Z,37.24
2022-09-05T11:15:51.214Z,37.78
2022-09-05T11:18:57.128Z,37.37
2022-09-05T11:21:35.088Z,37.44
2022-09-05T11:24:16.866Z,37.68
2022-09-05T11:27:24.383Z,37.97
2022-09-05T11:30:29.300Z,38.49
2022-09-05T11:36:27.614Z,38.88
2022-09-05T11:39:47.843Z,39.48
2022-09-05T11:40:02.466Z,38.78
2022-09-05T11:42:05.626Z,38.83
2022-09-05T11:44:56.834Z,38.70
2022-09-05T11:47:47.741Z,38.87
2022-09-05T11:50:38.993Z,38.94
2022-09-05T11:53:30.099Z,38.86
2022-09-05T11:56:03.600Z,38.52
2022-09-05T11:58:48.397Z,38.21
2022-09-05T12:01:43.441Z,38.10
2022-09-05T12:04:38.636Z,38.12
2022-09-05T12:07:26.927Z,38.29
2022-09-05T12:10:46.753Z,38.13
2022-09-05T12:13:26.529Z,38.87
2022-09-05T12:16:08.644Z,38.90
2022-09-05T12:18:42.665Z,39.23
2022-09-05T12:21:33.499Z,39.28
2022-09-05T12:25:24.732Z,39.16
2022-09-05T12:27:43.207Z,38.80
2022-09-05T12:30:10.034Z,38.54
2022-09-05T12:36:01.413Z,38.83
2022-09-05T12:40:40.364Z,38.74
2022-09-05T12:41:32.600Z,39.06
2022-09-05T12:42:19.971Z,39.57
2022-09-05T12:45:15.541Z,39.25
2022-09-05T12:47:54.862Z,39.05
2022-09-05T12:50:33.709Z,38.86
2022-09-05T12:53:19.538Z,39.02
2022-09-05T12:56:41.414Z,39.05
2022-09-05T13:02:55.754Z,39.51
2022-09-05T13:03:13.004Z,39.82
2022-09-05T13:04:48.734Z,39.76
2022-09-05T13:07:38.841Z,39.78
2022-09-05T13:12:48.146Z,40.26
2022-09-05T13:15:03.006Z,40.00
2022-09-05T13:16:22.919Z,39.49
2022-09-05T13:19:07.452Z,39.57
2022-09-05T13:21:45.522Z,39.54
2022-09-05T13:24:27.695Z,39.35
2022-09-05T13:27:00.152Z,39.35
2022-09-05T13:29:55.240Z,39.56
2022-09-05T13:38:03.378Z,39.83
2022-09-05T13:38:07.904Z,40.33
2022-09-05T13:38:48.553Z,40.51
2022-09-05T13:41:28.368Z,38.95
2022-09-05T13:44:26.267Z,38.26
2022-09-05T13:47:07.659Z,38.25
2022-09-05T13:50:19.916Z,38.85
2022-09-05T13:53:05.019Z,37.77
2022-09-05T13:55:54.002Z,37.30
2022-09-05T13:58:39.730Z,35.41
2022-09-05T14:01:32.456Z,34.73
2022-09-05T14:10:31.268Z,37.13
2022-09-05T14:13:15.971Z,36.25
2022-09-05T14:15:52.180Z,35.37
2022-09-05T14:18:53.846Z,34.65
2022-09-05T14:21:28.603Z,33.93
2022-09-05T14:24:05.101Z,33.61
2022-09-05T14:26:45.219Z,33.55
2022-09-05T14:29:21.994Z,33.74
2022-09-05T14:37:34.374Z,33.84
2022-09-05T14:37:53.848Z,33.74
2022-09-05T14:38:09.990Z,33.97
2022-09-05T14:41:04.877Z,35.15
2022-09-05T14:43:56.998Z,35.16
2022-09-05T14:46:49.732Z,34.75
2022-09-05T14:49:40.515Z,34.25
2022-09-05T14:52:35.574Z,33.75
2022-09-05T15:02:38.101Z,33.20
2022-09-05T15:02:53.438Z,33.03
2022-09-05T15:06:42.977Z,33.22
2022-09-05T15:11:25.522Z,33.24
2022-09-05T15:12:33.069Z,33.24
2022-09-05T15:15:13.401Z,32.83
2022-09-05T15:17:47.641Z,32.39
2022-09-05T15:20:29.285Z,32.04
2022-09-05T15:23:11.351Z,31.95
2022-09-05T15:25:51.194Z,32.06
2022-09-05T15:28:38.599Z,32.01
2022-09-05T15:31:20.182Z,31.76
2022-09-05T15:33:53.585Z,31.50
2022-09-05T15:36:33.645Z,31.94
2022-09-05T15:39:29.402Z,32.56
2022-09-05T15:42:18.557Z,32.38
2022-09-05T15:45:09.888Z,32.16
2022-09-05T15:47:45.404Z,32.01
2022-09-05T15:50:22.703Z,32.11
2022-09-05T15:52:56.057Z,32.01
2022-09-05T15:55:28.684Z,31.77
2022-09-05T15:58:07.206Z,31.60
2022-09-05T16:00:41.729Z,31.33
2022-09-05T16:04:14.210Z,31.10
2022-09-05T16:10:34.273Z,31.14
2022-09-05T16:10:41.288Z,31.39
2022-09-05T16:12:17.014Z,31.76
2022-09-05T16:15:48.009Z,31.75
2022-09-05T16:23:20.495Z,31.43
2022-09-05T16:23:29.334Z,31.10
2022-09-05T16:23:41.390Z,30.82
2022-09-05T16:26:25.034Z,30.59
2022-09-05T16:29:02.043Z,30.21
2022-09-05T16:31:45.451Z,29.81
2022-09-05T16:34:29.676Z,29.44
2022-09-05T16:37:08.555Z,29.12
2022-09-05T16:39:47.166Z,28.90
2022-09-05T16:42:45.851Z,28.75
2022-09-05T16:45:28.499Z,28.48
2022-09-05T16:48:10.342Z,28.31
2022-09-05T16:50:50.092Z,28.11
2022-09-05T16:53:58.990Z,27.90
2022-09-05T16:56:34.797Z,27.74
2022-09-05T16:59:09.332Z,27.63
2022-09-05T17:01:41.827Z,27.51
2022-09-05T17:04:36.682Z,27.38
2022-09-05T17:07:09.236Z,27.25
2022-09-05T17:09:43.372Z,27.15
2022-09-05T17:12:24.478Z,27.07
2022-09-05T17:15:17.259Z,26.94
2022-09-05T17:18:20.140Z,26.82
2022-09-05T17:20:52.118Z,26.69
2022-09-05T17:26:45.482Z,26.63
2022-09-05T17:29:29.473Z,26.52
2022-09-05T17:32:45.547Z,26.29
2022-09-05T17:35:24.054Z,26.22
2022-09-05T17:38:11.169Z,26.14
2022-09-05T17:40:44.551Z,26.05
2022-09-05T17:43:29.195Z,25.97
2022-09-05T17:46:01.723Z,25.89
2022-09-05T17:49:05.337Z,25.80
2022-09-05T17:51:42.233Z,25.77
2022-09-05T17:54:28.523Z,25.78
2022-09-05T17:57:22.673Z,25.74
2022-09-05T17:59:56.212Z,25.58
2022-09-05T18:02:32.937Z,25.44
2022-09-05T18:05:08.791Z,25.29
2022-09-05T18:07:42.781Z,25.13
2022-09-05T18:10:27.281Z,24.95
2022-09-05T18:13:32.485Z,24.78
2022-09-05T18:16:07.499Z,24.58
2022-09-05T18:19:27.982Z,24.43
2022-09-05T18:21:51.600Z,24.26
2022-09-05T18:24:42.711Z,24.14
2022-09-05T18:28:03.702Z,24.04
2022-09-05T18:30:20.914Z,23.96
2022-09-05T18:33:53.707Z,23.88
2022-09-05T18:35:54.780Z,23.77
2022-09-05T18:38:51.617Z,23.67
2022-09-05T18:41:24.924Z,23.76
2022-09-05T18:44:13.826Z,23.94
2022-09-05T18:46:55.956Z,24.00
2022-09-05T18:50:21.544Z,23.98
2022-09-05T18:52:35.470Z,23.99
2022-09-05T18:56:09.290Z,23.93
2022-09-05T18:58:09.063Z,23.80
2022-09-05T19:00:46.975Z,23.78
2022-09-05T19:03:27.734Z,23.70
2022-09-05T19:06:35.155Z,23.66
2022-09-05T19:09:01.476Z,23.57
2022-09-05T19:11:56.980Z,23.45
2022-09-05T19:14:43.255Z,23.25
2022-09-05T19:17:31.342Z,23.18
2022-09-05T19:20:32.270Z,23.07
2022-09-05T19:23:11.853Z,22.95
2022-09-05T19:25:46.486Z,22.84
2022-09-05T19:36:46.814Z,22.73
2022-09-05T19:36:55.079Z,22.57
2022-09-05T19:37:08.025Z,22.44
2022-09-05T19:37:30.254Z,22.34
2022-09-05T19:47:28.931Z,22.25
2022-09-05T19:47:33.799Z,22.18
2022-09-05T19:47:49.924Z,22.18
2022-09-05T19:49:13.053Z,22.15
2022-09-05T19:51:47.651Z,22.15
2022-09-05T19:54:28.284Z,22.08
2022-09-05T19:57:02.146Z,21.98
2022-09-05T19:59:38.182Z,21.87
2022-09-05T20:02:10.682Z,21.75
2022-09-05T20:04:53.082Z,21.65
2022-09-05T20:07:26.878Z,21.56
2022-09-05T20:10:01.366Z,21.51
2022-09-05T20:12:35.368Z,21.47
2022-09-05T20:15:35.774Z,21.37
2022-09-05T20:18:22.720Z,21.28
2022-09-05T20:21:07.326Z,21.20
2022-09-05T20:23:44.672Z,21.13
2022-09-05T20:26:20.511Z,21.08
2022-09-05T20:28:58.969Z,21.01
2022-09-05T20:31:33.190Z,20.97
2022-09-05T20:35:33.032Z,20.99
2022-09-05T20:43:09.934Z,21.00
2022-09-05T20:43:20.650Z,20.97
2022-09-05T20:43:23.647Z,20.99
2022-09-05T20:46:13.670Z,20.91
2022-09-05T20:54:09.235Z,20.92
2022-09-05T20:54:19.913Z,20.98
2022-09-05T20:54:43.450Z,21.01
2022-09-05T20:57:21.300Z,20.99
2022-09-05T20:59:53.847Z,21.03
2022-09-05T21:02:27.680Z,21.06
2022-09-05T21:05:20.708Z,21.03
2022-09-05T21:08:15.789Z,21.06
2022-09-05T21:10:55.384Z,21.06
2022-09-05T21:13:31.935Z,21.07
2022-09-05T21:16:19.531Z,21.08
2022-09-05T21:18:52.041Z,21.06
2022-09-05T21:21:28.581Z,20.98
2022-09-05T21:24:16.542Z,20.99
2022-09-05T21:26:52.378Z,20.78
2022-09-05T21:29:30.101Z,20.70
2022-09-05T21:32:11.268Z,20.74
2022-09-05T21:34:53.475Z,20.61
2022-09-05T21:37:27.384Z,20.54
2022-09-05T21:40:02.437Z,20.46
2022-09-05T21:43:30.216Z,20.40
2022-09-05T21:47:41.434Z,20.20
2022-09-05T21:48:26.282Z,20.01
2022-09-05T21:51:00.432Z,19.94
2022-09-05T21:59:14.556Z,19.93
2022-09-05T21:59:21.635Z,19.99
2022-09-05T21:59:40.049Z,19.99
2022-09-05T22:02:18.055Z,19.93
2022-09-05T22:05:02.749Z,19.87
2022-09-05T22:07:36.263Z,19.83
2022-09-05T22:10:09.153Z,19.79
2022-09-05T22:12:41.693Z,19.71
2022-09-05T22:15:28.088Z,19.67
2022-09-05T22:18:16.565Z,19.66
2022-09-05T22:21:32.178Z,19.61
2022-09-05T22:23:48.868Z,19.56
2022-09-05T22:26:23.494Z,19.52
2022-09-05T22:28:56.031Z,19.50
2022-09-05T22:31:28.690Z,19.47
2022-09-05T22:34:01.324Z,19.46
2022-09-05T22:36:35.201Z,19.49
2022-09-05T22:39:07.543Z,19.48
2022-09-05T22:41:39.947Z,19.48
2022-09-05T22:44:12.511Z,19.46
2022-09-05T22:46:44.971Z,19.45
2022-09-05T22:49:19.315Z,19.44
2022-09-05T22:51:51.682Z,19.41
2022-09-05T22:54:26.527Z,19.30
2022-09-05T22:56:58.873Z,19.12
2022-09-05T22:59:31.269Z,19.04
2022-09-05T23:02:03.744Z,19.07
2022-09-05T23:04:36.142Z,19.05
2022-09-05T23:07:09.468Z,18.91
2022-09-05T23:09:41.939Z,18.45
2022-09-05T23:12:14.307Z,18.02
2022-09-05T23:14:46.720Z,17.73
2022-09-05T23:17:19.070Z,17.56
2022-09-05T23:19:51.482Z,17.43
2022-09-05T23:22:24.102Z,17.50
2022-09-05T23:24:56.458Z,17.36
2022-09-05T23:27:29.911Z,17.33
2022-09-05T23:30:02.528Z,17.33
2022-09-05T23:32:35.220Z,17.40
2022-09-05T23:35:07.819Z,17.45
2022-09-05T23:37:44.342Z,17.47
2022-09-05T23:40:18.173Z,17.54
2022-09-05T23:42:54.799Z,17.56
2022-09-05T23:45:27.794Z,17.59
2022-09-05T23:48:00.551Z,17.60
2022-09-05T23:50:32.927Z,17.57
2022-09-05T23:53:05.401Z,17.54
2022-09-05T23:55:37.788Z,17.47
2022-09-05T23:58:10.581Z,17.37
